createdAt,value
2018-06-30T00:01:34.221Z,11.80
2018-06-30T00:04:06.356Z,11.10
2018-06-30T00:09:19.972Z,12.70
2018-06-30T00:11:52.130Z,13.17
2018-06-30T00:14:24.254Z,12.47
2018-06-30T00:16:56.311Z,12.40
2018-06-30T00:19:28.385Z,12.87
2018-06-30T00:22:00.492Z,12.97
2018-06-30T00:24:32.627Z,12.40
2018-06-30T00:27:10.530Z,12.50
2018-06-30T00:29:42.650Z,12.00
2018-06-30T00:32:14.773Z,11.90
2018-06-30T00:34:46.845Z,11.73
2018-06-30T00:37:18.967Z,12.13
2018-06-30T00:39:51.074Z,11.27
2018-06-30T00:42:23.207Z,12.10
2018-06-30T00:44:55.321Z,11.20
2018-06-30T00:47:27.411Z,12.20
2018-06-30T00:49:59.511Z,10.60
2018-06-30T00:52:31.618Z,11.30
2018-06-30T00:55:03.780Z,13.10
2018-06-30T00:57:35.901Z,12.60
2018-06-30T01:00:08.045Z,12.80
2018-06-30T01:02:40.176Z,12.30
2018-06-30T01:05:13.415Z,12.50
2018-06-30T01:07:45.562Z,11.67
2018-06-30T01:10:18.100Z,12.80
2018-06-30T01:12:50.168Z,11.37
2018-06-30T01:15:22.295Z,10.50
2018-06-30T01:17:54.409Z,11.27
2018-06-30T01:20:26.512Z,12.23
2018-06-30T01:22:58.648Z,10.97
2018-06-30T01:25:30.740Z,10.67
2018-06-30T01:28:02.818Z,10.73
2018-06-30T01:30:34.937Z,11.20
2018-06-30T01:33:07.071Z,11.30
2018-06-30T01:35:39.166Z,11.03
2018-06-30T01:38:11.262Z,11.50
2018-06-30T01:40:43.375Z,11.40
2018-06-30T01:43:15.513Z,11.10
2018-06-30T01:45:47.700Z,10.23
2018-06-30T01:48:19.831Z,11.17
2018-06-30T01:50:51.942Z,11.83
2018-06-30T01:53:24.056Z,12.23
2018-06-30T01:55:56.150Z,12.93
2018-06-30T01:58:28.262Z,12.63
2018-06-30T02:01:00.383Z,13.47
2018-06-30T02:03:32.504Z,12.87
2018-06-30T02:06:04.684Z,13.07
2018-06-30T02:08:36.801Z,11.17
2018-06-30T02:11:08.980Z,13.37
2018-06-30T02:13:41.086Z,12.57
2018-06-30T02:16:13.179Z,11.60
2018-06-30T02:18:45.259Z,11.37
2018-06-30T02:21:17.323Z,11.00
2018-06-30T02:23:49.444Z,11.13
2018-06-30T02:26:21.559Z,11.80
2018-06-30T02:28:54.255Z,11.50
2018-06-30T02:31:26.816Z,11.33
2018-06-30T02:33:58.961Z,11.20
2018-06-30T02:36:31.049Z,12.10
2018-06-30T02:39:05.026Z,11.70
2018-06-30T02:41:37.132Z,12.07
2018-06-30T02:44:09.239Z,12.33
2018-06-30T02:46:41.285Z,12.17
2018-06-30T02:49:13.371Z,11.20
2018-06-30T02:51:45.473Z,11.83
2018-06-30T02:54:17.591Z,11.63
2018-06-30T02:56:49.759Z,12.43
2018-06-30T02:59:21.872Z,11.63
2018-06-30T03:01:53.991Z,11.23
2018-06-30T03:04:26.077Z,11.27
2018-06-30T03:06:58.215Z,11.40
2018-06-30T03:09:30.369Z,11.40
2018-06-30T03:12:02.488Z,10.90
2018-06-30T03:14:34.555Z,10.47
2018-06-30T03:17:06.648Z,11.50
2018-06-30T03:19:38.847Z,10.53
2018-06-30T03:22:10.955Z,10.37
2018-06-30T03:24:43.091Z,11.20
2018-06-30T03:27:15.177Z,11.03
2018-06-30T03:29:47.252Z,10.90
2018-06-30T03:32:19.348Z,11.20
2018-06-30T03:34:51.467Z,10.90
2018-06-30T03:37:23.536Z,11.30
2018-06-30T03:39:55.651Z,10.90
2018-06-30T03:42:27.770Z,10.60
2018-06-30T03:44:59.888Z,11.40
2018-06-30T03:47:32.028Z,11.03
2018-06-30T03:50:04.285Z,12.20
2018-06-30T03:52:36.427Z,12.60
2018-06-30T03:55:08.519Z,11.37
2018-06-30T03:57:40.607Z,9.50
2018-06-30T04:00:16.541Z,9.67
2018-06-30T04:02:48.647Z,10.57
2018-06-30T04:05:21.283Z,9.07
2018-06-30T04:07:53.373Z,9.80
2018-06-30T04:10:25.487Z,9.60
2018-06-30T04:12:57.540Z,8.97
2018-06-30T04:15:29.660Z,9.13
2018-06-30T04:18:01.736Z,8.20
2018-06-30T04:20:33.849Z,8.43
2018-06-30T04:23:06.006Z,8.83
2018-06-30T04:25:38.133Z,8.30
2018-06-30T04:28:10.203Z,8.63
2018-06-30T04:30:42.369Z,7.60
2018-06-30T04:33:14.436Z,7.60
2018-06-30T04:35:47.584Z,7.00
2018-06-30T04:38:19.691Z,6.57
2018-06-30T04:40:51.834Z,7.43
2018-06-30T04:43:23.955Z,6.63
2018-06-30T04:45:56.079Z,6.63
2018-06-30T04:48:28.194Z,6.60
2018-06-30T04:51:00.337Z,6.90
2018-06-30T04:53:32.438Z,7.10
2018-06-30T04:56:04.504Z,6.60
2018-06-30T04:58:36.659Z,7.10
2018-06-30T05:01:08.865Z,7.10
2018-06-30T05:03:41.038Z,6.87
2018-06-30T05:06:13.143Z,6.80
2018-06-30T05:08:45.476Z,6.90
2018-06-30T05:11:17.675Z,5.77
2018-06-30T05:13:49.799Z,7.17
2018-06-30T05:16:21.955Z,7.53
2018-06-30T05:18:54.069Z,7.00
2018-06-30T05:21:26.182Z,7.00
2018-06-30T05:23:58.365Z,6.10
2018-06-30T05:26:30.448Z,6.10
2018-06-30T05:29:02.632Z,5.87
2018-06-30T05:31:34.790Z,6.60
2018-06-30T05:34:06.895Z,6.03
2018-06-30T05:36:39.002Z,6.33
2018-06-30T05:39:11.112Z,6.63
2018-06-30T05:41:43.245Z,6.30
2018-06-30T05:44:15.351Z,5.63
2018-06-30T05:46:47.428Z,5.30
2018-06-30T05:49:19.751Z,5.30
2018-06-30T05:51:51.834Z,5.83
2018-06-30T05:54:24.005Z,6.30
2018-06-30T05:56:56.108Z,5.47
2018-06-30T05:59:28.265Z,4.97
2018-06-30T06:02:00.303Z,5.23
2018-06-30T06:04:32.423Z,5.30
2018-06-30T06:07:05.015Z,4.30
2018-06-30T06:09:37.183Z,4.73
2018-06-30T06:12:09.222Z,4.43
2018-06-30T06:14:41.284Z,4.53
2018-06-30T06:17:13.358Z,4.80
2018-06-30T06:19:46.217Z,5.17
2018-06-30T06:22:18.347Z,4.70
2018-06-30T06:24:50.430Z,4.40
2018-06-30T06:27:22.558Z,4.43
2018-06-30T06:29:54.686Z,4.73
2018-06-30T06:32:26.878Z,5.17
2018-06-30T06:34:58.943Z,5.10
2018-06-30T06:37:31.025Z,4.63
2018-06-30T06:40:03.564Z,4.67
2018-06-30T06:42:35.705Z,4.83
2018-06-30T06:45:07.791Z,4.60
2018-06-30T06:47:39.885Z,4.43
2018-06-30T06:50:12.016Z,5.40
2018-06-30T06:52:44.132Z,5.47
2018-06-30T06:55:16.199Z,5.07
2018-06-30T06:57:48.296Z,4.40
2018-06-30T07:00:20.383Z,5.33
2018-06-30T07:02:52.498Z,4.80
2018-06-30T07:05:24.568Z,4.23
2018-06-30T07:07:56.699Z,5.20
2018-06-30T07:10:28.894Z,4.57
2018-06-30T07:13:00.882Z,4.83
2018-06-30T07:15:32.995Z,5.77
2018-06-30T07:18:05.148Z,4.60
2018-06-30T07:20:37.418Z,4.87
2018-06-30T07:23:09.485Z,5.50
2018-06-30T07:25:41.782Z,5.00
2018-06-30T07:28:13.694Z,5.70
2018-06-30T07:30:45.883Z,5.37
2018-06-30T07:33:17.915Z,5.10
2018-06-30T08:57:52.211Z,10.30
2018-06-30T09:00:24.315Z,11.90
2018-06-30T09:02:56.392Z,11.70
2018-06-30T09:05:28.519Z,11.00
2018-06-30T09:08:00.619Z,11.30
2018-06-30T09:10:32.769Z,11.97
2018-06-30T09:13:04.938Z,10.60
2018-06-30T09:15:37.101Z,10.40
2018-06-30T09:18:09.251Z,9.80
2018-06-30T09:20:41.343Z,10.80
2018-06-30T09:23:13.432Z,11.00
2018-06-30T09:25:45.589Z,12.07
2018-06-30T09:28:17.758Z,10.80
2018-06-30T09:30:49.896Z,10.73
2018-06-30T09:33:22.091Z,10.77
2018-06-30T09:35:54.215Z,10.83
2018-06-30T09:38:26.386Z,11.20
2018-06-30T09:40:58.523Z,12.00
2018-06-30T09:43:30.738Z,11.13
2018-06-30T09:46:02.926Z,9.83
2018-06-30T09:48:35.219Z,10.27
2018-06-30T09:51:07.677Z,10.67
2018-06-30T09:53:39.836Z,11.27
2018-06-30T09:56:11.915Z,10.17
2018-06-30T09:58:44.282Z,9.83
2018-06-30T10:01:16.376Z,11.67
2018-06-30T10:03:48.466Z,11.97
2018-06-30T10:06:20.531Z,11.47
2018-06-30T10:08:52.686Z,10.03
2018-06-30T10:11:24.807Z,11.23
2018-06-30T10:13:56.952Z,10.33
2018-06-30T10:16:29.094Z,10.90
2018-06-30T10:19:01.222Z,9.43
2018-06-30T10:21:33.354Z,9.10
2018-06-30T10:24:05.467Z,9.57
2018-06-30T10:26:37.784Z,9.13
2018-06-30T10:29:09.887Z,9.47
2018-06-30T10:31:41.959Z,9.70
2018-06-30T10:34:14.107Z,9.37
2018-06-30T10:36:46.225Z,9.67
2018-06-30T10:39:18.371Z,8.47
2018-06-30T10:41:50.504Z,8.30
2018-06-30T10:44:22.615Z,8.27
2018-06-30T10:46:55.664Z,8.90
2018-06-30T10:49:27.801Z,7.20
2018-06-30T10:51:59.906Z,8.30
2018-06-30T10:54:32.023Z,8.77
2018-06-30T10:57:04.229Z,7.90
2018-06-30T10:59:36.371Z,7.47
2018-06-30T11:02:08.542Z,7.20
2018-06-30T11:04:40.652Z,7.30
2018-06-30T11:07:12.787Z,7.27
2018-06-30T11:09:44.950Z,6.90
2018-06-30T11:12:17.107Z,7.53
2018-06-30T11:14:49.206Z,7.13
2018-06-30T11:17:21.292Z,6.70
2018-06-30T11:19:53.389Z,7.00
2018-06-30T11:22:25.577Z,6.37
2018-06-30T11:24:57.646Z,6.57
2018-06-30T11:27:29.722Z,6.97
2018-06-30T11:30:01.926Z,7.57
2018-06-30T11:32:34.634Z,5.90
2018-06-30T11:35:07.024Z,6.30
2018-06-30T11:37:39.119Z,6.33
2018-06-30T11:40:11.208Z,5.90
2018-06-30T11:42:43.360Z,6.37
2018-06-30T11:45:15.473Z,6.00
2018-06-30T11:47:47.744Z,5.30
2018-06-30T11:50:19.885Z,5.10
2018-06-30T11:52:51.999Z,5.30
2018-06-30T11:55:24.324Z,5.00
2018-06-30T11:57:56.454Z,5.00
2018-06-30T12:00:28.576Z,4.77
2018-06-30T12:03:00.652Z,4.93
2018-06-30T12:05:32.776Z,5.27
2018-06-30T12:08:05.103Z,5.00
2018-06-30T12:10:37.267Z,5.30
2018-06-30T12:13:09.423Z,4.90
2018-06-30T12:15:41.595Z,4.37
2018-06-30T12:18:13.724Z,4.10
2018-06-30T12:20:45.858Z,4.20
2018-06-30T12:23:18.031Z,4.60
2018-06-30T12:25:50.173Z,4.10
2018-06-30T12:28:22.289Z,4.50
2018-06-30T12:30:54.430Z,4.07
2018-06-30T12:33:26.555Z,3.53
2018-06-30T12:35:58.685Z,3.80
2018-06-30T12:38:30.811Z,3.80
2018-06-30T12:41:02.970Z,3.00
2018-06-30T12:43:35.082Z,3.43
2018-06-30T12:46:07.440Z,3.00
2018-06-30T12:48:39.550Z,3.57
2018-06-30T12:51:11.698Z,3.20
2018-06-30T12:53:43.783Z,2.43
2018-06-30T12:56:15.926Z,2.40
2018-06-30T12:58:48.000Z,2.60
2018-06-30T13:01:20.122Z,2.23
2018-06-30T13:03:52.246Z,2.07
2018-06-30T13:06:24.322Z,1.83
2018-06-30T13:08:56.461Z,2.27
2018-06-30T13:11:28.545Z,1.90
2018-06-30T13:14:00.639Z,2.63
2018-06-30T13:16:32.804Z,2.10
2018-06-30T13:19:05.254Z,1.70
2018-06-30T13:21:37.435Z,2.20
2018-06-30T13:24:09.619Z,1.87
2018-06-30T13:26:41.735Z,2.23
2018-06-30T13:29:13.850Z,1.67
2018-06-30T13:31:46.020Z,1.50
2018-06-30T13:34:18.155Z,1.80
2018-06-30T13:36:50.272Z,1.50
2018-06-30T13:39:22.387Z,1.60
2018-06-30T13:41:54.536Z,1.30
2018-06-30T13:44:26.695Z,1.17
2018-06-30T13:46:58.807Z,1.20
2018-06-30T13:49:30.980Z,1.20
2018-06-30T13:52:03.180Z,1.27
2018-06-30T13:54:35.348Z,1.17
2018-06-30T13:57:07.525Z,1.30
2018-06-30T13:59:39.680Z,1.20
2018-06-30T14:02:11.844Z,1.30
2018-06-30T14:04:43.981Z,1.43
2018-06-30T14:07:16.137Z,1.20
2018-06-30T14:09:48.293Z,1.30
2018-06-30T14:12:20.409Z,1.50
2018-06-30T14:14:52.499Z,1.27
2018-06-30T14:17:24.640Z,1.10
2018-06-30T14:19:56.740Z,1.47
2018-06-30T14:22:28.888Z,1.40
2018-06-30T14:25:01.051Z,1.57
2018-06-30T14:27:33.207Z,1.20
2018-06-30T14:30:07.479Z,1.73
2018-06-30T14:32:39.927Z,1.40
2018-06-30T14:35:12.052Z,1.27
2018-06-30T14:37:44.185Z,1.77
2018-06-30T14:40:16.259Z,1.60
2018-06-30T14:42:48.376Z,1.37
2018-06-30T14:45:20.454Z,1.57
2018-06-30T14:47:52.535Z,1.20
2018-06-30T14:50:24.595Z,1.20
2018-06-30T14:52:56.724Z,0.90
2018-06-30T14:55:28.869Z,1.10
2018-06-30T14:58:01.027Z,1.13
2018-06-30T15:00:33.132Z,1.00
2018-06-30T15:03:05.240Z,1.23
2018-06-30T15:05:37.339Z,0.97
2018-06-30T15:08:09.491Z,1.10
2018-06-30T15:10:41.583Z,1.00
2018-06-30T15:13:13.685Z,1.13
2018-06-30T15:15:45.816Z,1.10
2018-06-30T15:18:18.011Z,1.30
2018-06-30T15:20:50.099Z,0.93
2018-06-30T15:23:22.211Z,1.20
2018-06-30T15:25:54.368Z,1.10
2018-06-30T15:28:26.467Z,0.73
2018-06-30T15:30:58.548Z,0.90
2018-06-30T15:33:30.676Z,1.00
2018-06-30T15:36:02.870Z,0.93
2018-06-30T15:38:34.919Z,0.90
2018-06-30T15:41:07.094Z,0.70
2018-06-30T15:43:39.311Z,1.10
2018-06-30T15:46:11.451Z,0.83
2018-06-30T15:48:43.592Z,0.83
2018-06-30T15:51:15.668Z,0.90
2018-06-30T15:53:47.934Z,0.80
2018-06-30T15:56:20.012Z,0.80
2018-06-30T15:58:52.233Z,0.83
2018-06-30T16:01:24.352Z,0.93
2018-06-30T16:03:56.461Z,1.00
2018-06-30T16:06:28.893Z,0.90
2018-06-30T16:09:01.087Z,0.77
2018-06-30T16:11:33.176Z,0.80
2018-06-30T16:14:05.723Z,1.00
2018-06-30T16:16:38.460Z,1.00
2018-06-30T16:19:10.621Z,0.80
2018-06-30T16:21:42.740Z,0.90
2018-06-30T16:24:14.864Z,0.70
2018-06-30T16:26:46.957Z,0.77
2018-06-30T16:29:19.051Z,0.70
2018-06-30T16:31:51.196Z,0.63
2018-06-30T16:34:23.304Z,1.00
2018-06-30T16:36:55.443Z,0.77
2018-06-30T16:39:27.513Z,0.70
2018-06-30T16:41:59.650Z,0.70
2018-06-30T16:44:31.786Z,0.90
2018-06-30T16:47:03.929Z,1.20
2018-06-30T16:49:36.025Z,0.70
2018-06-30T16:52:08.159Z,0.70
2018-06-30T16:54:40.271Z,0.80
2018-06-30T16:57:12.484Z,0.80
2018-06-30T16:59:44.585Z,0.93
2018-06-30T17:02:16.779Z,1.10
2018-06-30T17:04:48.950Z,0.90
2018-06-30T17:07:21.096Z,0.90
2018-06-30T17:09:53.239Z,0.80
2018-06-30T17:12:25.334Z,0.70
2018-06-30T17:14:57.543Z,1.00
2018-06-30T17:17:29.601Z,0.80
2018-06-30T17:20:01.752Z,1.13
2018-06-30T17:22:33.855Z,0.73
2018-06-30T17:25:06.038Z,0.80
2018-06-30T17:27:38.104Z,0.90
2018-06-30T17:30:10.220Z,0.80
2018-06-30T17:32:42.313Z,0.70
2018-06-30T17:35:14.456Z,0.70
2018-06-30T17:37:46.543Z,1.00
2018-06-30T17:40:18.683Z,0.80
2018-06-30T17:42:50.785Z,0.90
2018-06-30T17:45:22.953Z,1.10
2018-06-30T17:47:55.049Z,1.30
2018-06-30T17:50:27.260Z,1.50
2018-06-30T17:52:59.384Z,1.33
2018-06-30T17:55:31.509Z,1.90
2018-06-30T17:58:03.681Z,1.60
2018-06-30T18:00:35.865Z,1.80
2018-06-30T18:03:07.936Z,1.33
2018-06-30T18:05:40.016Z,1.40
2018-06-30T18:08:12.089Z,1.97
2018-06-30T18:10:44.149Z,2.07
2018-06-30T18:13:16.230Z,1.37
2018-06-30T18:15:48.402Z,1.20
2018-06-30T18:18:20.470Z,1.10
2018-06-30T18:20:52.588Z,1.10
2018-06-30T18:23:24.663Z,1.10
2018-06-30T18:25:56.761Z,1.13
2018-06-30T18:28:28.909Z,1.00
2018-06-30T18:31:01.023Z,0.80
2018-06-30T18:33:33.128Z,0.80
2018-06-30T18:36:05.294Z,1.00
2018-06-30T18:38:37.379Z,2.00
2018-06-30T18:41:09.496Z,1.10
2018-06-30T18:43:41.563Z,1.37
2018-06-30T18:46:13.715Z,0.90
2018-06-30T18:48:45.812Z,0.93
2018-06-30T18:51:17.879Z,1.00
2018-06-30T18:53:50.034Z,1.33
2018-06-30T18:56:22.149Z,1.00
2018-06-30T18:58:54.212Z,0.83
2018-06-30T19:01:26.294Z,0.83
2018-06-30T19:03:58.403Z,1.00
2018-06-30T19:06:30.481Z,0.97
2018-06-30T19:09:03.141Z,1.00
2018-06-30T19:11:35.308Z,1.00
2018-06-30T19:14:08.236Z,0.93
2018-06-30T19:16:40.323Z,1.40
2018-06-30T19:19:12.421Z,1.00
2018-06-30T19:21:44.523Z,1.10
2018-06-30T19:24:16.654Z,1.23
2018-06-30T19:26:48.745Z,0.80
2018-06-30T19:29:20.785Z,0.93
2018-06-30T19:31:52.846Z,0.60
2018-06-30T19:34:24.929Z,0.80
2018-06-30T19:36:57.023Z,0.83
2018-06-30T19:39:29.158Z,1.03
2018-06-30T19:42:01.342Z,0.70
2018-06-30T19:44:33.421Z,0.90
2018-06-30T19:47:05.803Z,0.83
2018-06-30T19:49:37.868Z,1.10
2018-06-30T19:52:09.992Z,0.90
2018-06-30T19:54:42.065Z,0.80
2018-06-30T19:57:14.130Z,0.80
2018-06-30T19:59:46.220Z,0.93
2018-06-30T20:02:18.351Z,0.90
2018-06-30T20:04:50.744Z,0.87
2018-06-30T20:07:22.856Z,0.90
2018-06-30T20:09:54.951Z,0.87
2018-06-30T20:12:27.067Z,0.87
2018-06-30T20:14:59.141Z,1.40
2018-06-30T20:17:31.268Z,1.17
2018-06-30T20:20:03.385Z,0.93
2018-06-30T20:22:35.483Z,0.80
2018-06-30T20:25:07.547Z,0.90
2018-06-30T20:27:39.635Z,0.87
2018-06-30T20:30:11.822Z,0.73
2018-06-30T20:32:43.905Z,0.90
2018-06-30T20:35:16.053Z,0.80
2018-06-30T20:37:48.144Z,0.60
2018-06-30T20:40:20.286Z,0.83
2018-06-30T20:42:52.391Z,1.03
2018-06-30T20:45:24.561Z,0.90
2018-06-30T20:47:56.700Z,1.10
2018-06-30T20:50:28.811Z,0.90
2018-06-30T20:53:00.918Z,1.87
2018-06-30T20:55:33.027Z,1.40
2018-06-30T20:58:05.355Z,1.57
2018-06-30T21:00:37.492Z,0.80
2018-06-30T21:03:11.288Z,1.10
2018-06-30T21:05:43.368Z,0.70
2018-06-30T21:08:15.568Z,0.80
2018-06-30T21:10:47.615Z,0.70
2018-06-30T21:13:19.780Z,0.97
2018-06-30T21:15:51.867Z,0.80
2018-06-30T21:18:24.002Z,0.77
2018-06-30T21:20:56.132Z,1.27
2018-06-30T21:23:28.243Z,1.30
2018-06-30T21:26:00.323Z,0.97
2018-06-30T21:28:32.410Z,1.30
2018-06-30T21:31:04.531Z,0.97
2018-06-30T21:33:36.621Z,1.30
2018-06-30T21:36:08.774Z,0.90
2018-06-30T21:38:40.856Z,0.70
2018-06-30T21:41:12.962Z,1.07
2018-06-30T21:43:45.100Z,0.80
2018-06-30T21:46:17.252Z,1.00
2018-06-30T21:48:49.364Z,1.00
2018-06-30T21:51:21.504Z,1.10
2018-06-30T21:53:53.584Z,1.10
2018-06-30T21:56:25.676Z,1.10
2018-06-30T21:58:57.764Z,1.07
2018-06-30T22:01:29.948Z,1.30
2018-06-30T22:04:02.080Z,1.10
2018-06-30T22:06:34.204Z,1.10
2018-06-30T22:09:08.107Z,1.00
2018-06-30T22:11:40.271Z,1.10
2018-06-30T22:14:12.509Z,0.90
2018-06-30T22:16:44.580Z,0.80
2018-06-30T22:19:16.735Z,0.70
2018-06-30T22:21:48.860Z,1.10
2018-06-30T22:24:20.981Z,1.00
2018-06-30T22:26:53.137Z,1.50
2018-06-30T22:29:25.199Z,0.87
2018-06-30T22:31:57.344Z,0.90
2018-06-30T22:34:29.437Z,0.80
2018-06-30T22:37:01.591Z,1.10
2018-06-30T22:39:45.147Z,0.90
2018-06-30T22:42:17.240Z,0.90
2018-06-30T22:44:52.595Z,0.80
2018-06-30T22:47:24.745Z,0.80
2018-06-30T22:51:00.305Z,1.00
2018-06-30T22:53:32.433Z,0.80
2018-06-30T22:56:04.607Z,0.97
2018-06-30T22:58:36.752Z,1.20
2018-06-30T23:01:08.870Z,0.80
2018-06-30T23:03:40.988Z,0.93
2018-06-30T23:06:13.118Z,1.20
2018-06-30T23:08:50.875Z,0.97
2018-06-30T23:11:23.849Z,0.90
2018-06-30T23:13:56.009Z,1.00
2018-06-30T23:16:28.087Z,1.40
2018-06-30T23:19:00.207Z,0.70
2018-06-30T23:21:32.296Z,0.80
2018-06-30T23:24:04.591Z,1.40
2018-06-30T23:26:36.739Z,1.00
2018-06-30T23:29:08.820Z,0.90
2018-06-30T23:31:40.915Z,0.80
2018-06-30T23:34:12.999Z,1.10
2018-06-30T23:36:45.108Z,0.90
2018-06-30T23:39:17.186Z,0.93
2018-06-30T23:41:49.300Z,1.00
2018-06-30T23:44:21.437Z,1.00
2018-06-30T23:46:53.504Z,1.17
2018-06-30T23:49:25.577Z,1.40
2018-06-30T23:51:57.719Z,1.60
2018-06-30T23:54:29.796Z,1.70
2018-06-30T23:57:01.950Z,1.37
2018-06-30T23:59:34.055Z,1.80
